sensor_id;sensor_type;location;lat;lon;timestamp;P1;durP1;ratioP1;P2;durP2;ratioP2
65879;SDS011;52661;51.364;6.054;2023-02-28T00:00:23;3.65;;;1.60;;
65879;SDS011;52661;51.364;6.054;2023-02-28T00:02:49;4.53;;;1.17;;
65879;SDS011;52661;51.364;6.054;2023-02-28T00:05:16;3.78;;;1.75;;
65879;SDS011;52661;51.364;6.054;2023-02-28T00:07:43;3.97;;;1.50;;
65879;SDS011;52661;51.364;6.054;2023-02-28T00:10:10;6.75;;;1.85;;
65879;SDS011;52661;51.364;6.054;2023-02-28T00:12:37;7.25;;;1.80;;
65879;SDS011;52661;51.364;6.054;2023-02-28T00:15:07;6.95;;;1.73;;
65879;SDS011;52661;51.364;6.054;2023-02-28T00:17:34;7.13;;;1.50;;
65879;SDS011;52661;51.364;6.054;2023-02-28T00:19:59;4.07;;;1.58;;
65879;SDS011;52661;51.364;6.054;2023-02-28T00:22:28;6.65;;;1.77;;
65879;SDS011;52661;51.364;6.054;2023-02-28T00:24:53;3.78;;;2.00;;
65879;SDS011;52661;51.364;6.054;2023-02-28T00:27:19;5.90;;;2.07;;
65879;SDS011;52661;51.364;6.054;2023-02-28T00:29:46;4.63;;;2.20;;
65879;SDS011;52661;51.364;6.054;2023-02-28T00:32:11;9.75;;;2.58;;
65879;SDS011;52661;51.364;6.054;2023-02-28T00:34:37;5.13;;;2.20;;
65879;SDS011;52661;51.364;6.054;2023-02-28T00:37:06;4.97;;;2.03;;
65879;SDS011;52661;51.364;6.054;2023-02-28T00:39:36;6.93;;;2.25;;
65879;SDS011;52661;51.364;6.054;2023-02-28T00:42:02;6.65;;;3.20;;
65879;SDS011;52661;51.364;6.054;2023-02-28T00:44:28;8.50;;;2.80;;
65879;SDS011;52661;51.364;6.054;2023-02-28T00:46:54;7.05;;;2.63;;
65879;SDS011;52661;51.364;6.054;2023-02-28T00:49:20;4.40;;;1.85;;
65879;SDS011;52661;51.364;6.054;2023-02-28T00:51:46;3.05;;;1.50;;
65879;SDS011;52661;51.364;6.054;2023-02-28T00:54:11;5.68;;;2.05;;
65879;SDS011;52661;51.364;6.054;2023-02-28T00:56:37;3.33;;;1.70;;
65879;SDS011;52661;51.364;6.054;2023-02-28T00:59:02;6.93;;;2.38;;
65879;SDS011;52661;51.364;6.054;2023-02-28T01:01:27;4.80;;;2.07;;
65879;SDS011;52661;51.364;6.054;2023-02-28T01:03:53;4.27;;;2.17;;
65879;SDS011;52661;51.364;6.054;2023-02-28T01:06:18;10.67;;;4.70;;
65879;SDS011;52661;51.364;6.054;2023-02-28T01:08:43;6.95;;;3.33;;
65879;SDS011;52661;51.364;6.054;2023-02-28T01:11:10;5.00;;;2.70;;
65879;SDS011;52661;51.364;6.054;2023-02-28T01:13:37;6.63;;;2.10;;
65879;SDS011;52661;51.364;6.054;2023-02-28T01:16:02;5.47;;;2.45;;
65879;SDS011;52661;51.364;6.054;2023-02-28T01:18:28;7.10;;;2.03;;
65879;SDS011;52661;51.364;6.054;2023-02-28T01:20:54;6.38;;;2.50;;
65879;SDS011;52661;51.364;6.054;2023-02-28T01:23:20;5.53;;;2.20;;
65879;SDS011;52661;51.364;6.054;2023-02-28T01:28:13;6.23;;;1.87;;
65879;SDS011;52661;51.364;6.054;2023-02-28T01:30:38;4.95;;;1.67;;
65879;SDS011;52661;51.364;6.054;2023-02-28T01:33:04;7.07;;;3.87;;
65879;SDS011;52661;51.364;6.054;2023-02-28T01:35:31;8.10;;;3.90;;
65879;SDS011;52661;51.364;6.054;2023-02-28T01:37:57;8.85;;;3.47;;
65879;SDS011;52661;51.364;6.054;2023-02-28T01:40:23;7.13;;;3.60;;
65879;SDS011;52661;51.364;6.054;2023-02-28T01:42:48;7.17;;;3.33;;
65879;SDS011;52661;51.364;6.054;2023-02-28T01:47:48;5.75;;;1.92;;
65879;SDS011;52661;51.364;6.054;2023-02-28T01:50:21;4.35;;;1.48;;
65879;SDS011;52661;51.364;6.054;2023-02-28T01:52:49;5.10;;;2.10;;
65879;SDS011;52661;51.364;6.054;2023-02-28T01:55:17;5.93;;;1.80;;
65879;SDS011;52661;51.364;6.054;2023-02-28T01:57:46;6.68;;;1.45;;
65879;SDS011;52661;51.364;6.054;2023-02-28T02:00:20;3.60;;;1.75;;
65879;SDS011;52661;51.364;6.054;2023-02-28T02:02:50;6.07;;;1.73;;
65879;SDS011;52661;51.364;6.054;2023-02-28T02:05:22;4.95;;;1.85;;
65879;SDS011;52661;51.364;6.054;2023-02-28T02:07:57;6.93;;;1.77;;
65879;SDS011;52661;51.364;6.054;2023-02-28T02:32:45;5.20;;;1.60;;
65879;SDS011;52661;51.364;6.054;2023-02-28T02:35:39;3.42;;;1.52;;
65879;SDS011;52661;51.364;6.054;2023-02-28T02:40:59;4.75;;;1.35;;
65879;SDS011;52661;51.364;6.054;2023-02-28T02:43:49;5.53;;;1.80;;
65879;SDS011;52661;51.364;6.054;2023-02-28T02:46:41;5.90;;;1.85;;
65879;SDS011;52661;51.364;6.054;2023-02-28T02:49:09;6.60;;;1.73;;
65879;SDS011;52661;51.364;6.054;2023-02-28T02:51:40;8.65;;;1.35;;
65879;SDS011;52661;51.364;6.054;2023-02-28T02:54:08;7.53;;;1.95;;
65879;SDS011;52661;51.364;6.054;2023-02-28T02:56:41;6.82;;;1.85;;
65879;SDS011;52661;51.364;6.054;2023-02-28T02:59:11;5.05;;;1.40;;
65879;SDS011;52661;51.364;6.054;2023-02-28T03:01:39;4.43;;;2.00;;
65879;SDS011;52661;51.364;6.054;2023-02-28T03:04:09;6.82;;;1.75;;
65879;SDS011;52661;51.364;6.054;2023-02-28T03:06:38;4.90;;;1.63;;
65879;SDS011;52661;51.364;6.054;2023-02-28T03:09:04;6.60;;;2.43;;
65879;SDS011;52661;51.364;6.054;2023-02-28T03:11:29;6.25;;;1.80;;
65879;SDS011;52661;51.364;6.054;2023-02-28T03:33:20;6.55;;;1.98;;
65879;SDS011;52661;51.364;6.054;2023-02-28T03:35:57;9.68;;;2.33;;
65879;SDS011;52661;51.364;6.054;2023-02-28T03:38:47;5.15;;;1.70;;
65879;SDS011;52661;51.364;6.054;2023-02-28T03:41:26;6.00;;;1.73;;
65879;SDS011;52661;51.364;6.054;2023-02-28T03:44:00;5.55;;;2.58;;
65879;SDS011;52661;51.364;6.054;2023-02-28T03:46:32;6.60;;;1.58;;
65879;SDS011;52661;51.364;6.054;2023-02-28T03:49:14;5.38;;;1.88;;
65879;SDS011;52661;51.364;6.054;2023-02-28T03:51:43;7.38;;;2.53;;
65879;SDS011;52661;51.364;6.054;2023-02-28T03:54:12;7.00;;;2.25;;
65879;SDS011;52661;51.364;6.054;2023-02-28T03:56:45;5.78;;;1.77;;
65879;SDS011;52661;51.364;6.054;2023-02-28T03:59:20;5.13;;;2.35;;
65879;SDS011;52661;51.364;6.054;2023-02-28T04:01:50;3.90;;;2.00;;
65879;SDS011;52661;51.364;6.054;2023-02-28T04:04:16;4.63;;;2.60;;
65879;SDS011;52661;51.364;6.054;2023-02-28T04:06:43;7.32;;;3.45;;
65879;SDS011;52661;51.364;6.054;2023-02-28T04:09:11;6.97;;;3.38;;
65879;SDS011;52661;51.364;6.054;2023-02-28T04:11:39;10.00;;;4.63;;
65879;SDS011;52661;51.364;6.054;2023-02-28T04:14:07;9.57;;;4.00;;
65879;SDS011;52661;51.364;6.054;2023-02-28T04:16:34;8.95;;;3.78;;
65879;SDS011;52661;51.364;6.054;2023-02-28T04:19:03;5.72;;;2.55;;
65879;SDS011;52661;51.364;6.054;2023-02-28T04:21:31;7.35;;;2.30;;
65879;SDS011;52661;51.364;6.054;2023-02-28T04:23:58;9.13;;;2.78;;
65879;SDS011;52661;51.364;6.054;2023-02-28T04:26:27;7.40;;;3.47;;
65879;SDS011;52661;51.364;6.054;2023-02-28T04:28:56;6.10;;;3.80;;
65879;SDS011;52661;51.364;6.054;2023-02-28T04:31:23;5.95;;;2.97;;
65879;SDS011;52661;51.364;6.054;2023-02-28T04:33:49;3.20;;;1.65;;
65879;SDS011;52661;51.364;6.054;2023-02-28T04:36:14;5.80;;;2.03;;
65879;SDS011;52661;51.364;6.054;2023-02-28T04:38:42;3.85;;;1.75;;
65879;SDS011;52661;51.364;6.054;2023-02-28T04:41:08;6.85;;;1.63;;
65879;SDS011;52661;51.364;6.054;2023-02-28T04:43:34;3.60;;;1.45;;
65879;SDS011;52661;51.364;6.054;2023-02-28T04:46:01;5.40;;;1.40;;
65879;SDS011;52661;51.364;6.054;2023-02-28T04:48:28;4.80;;;2.40;;
65879;SDS011;52661;51.364;6.054;2023-02-28T04:50:54;4.82;;;2.17;;
65879;SDS011;52661;51.364;6.054;2023-02-28T04:53:19;5.40;;;2.70;;
65879;SDS011;52661;51.364;6.054;2023-02-28T04:55:45;6.50;;;2.15;;
65879;SDS011;52661;51.364;6.054;2023-02-28T04:58:11;5.88;;;2.42;;
65879;SDS011;52661;51.364;6.054;2023-02-28T05:00:37;5.85;;;2.10;;
65879;SDS011;52661;51.364;6.054;2023-02-28T05:03:02;4.80;;;2.35;;
65879;SDS011;52661;51.364;6.054;2023-02-28T05:05:28;8.07;;;2.53;;
65879;SDS011;52661;51.364;6.054;2023-02-28T05:07:53;4.53;;;2.22;;
65879;SDS011;52661;51.364;6.054;2023-02-28T05:10:20;6.20;;;2.22;;
65879;SDS011;52661;51.364;6.054;2023-02-28T05:12:46;5.45;;;1.73;;
65879;SDS011;52661;51.364;6.054;2023-02-28T05:15:13;4.78;;;2.15;;
65879;SDS011;52661;51.364;6.054;2023-02-28T05:17:39;5.05;;;1.75;;
65879;SDS011;52661;51.364;6.054;2023-02-28T05:20:05;3.60;;;1.15;;
65879;SDS011;52661;51.364;6.054;2023-02-28T05:22:31;6.07;;;1.73;;
65879;SDS011;52661;51.364;6.054;2023-02-28T05:24:57;6.10;;;2.10;;
65879;SDS011;52661;51.364;6.054;2023-02-28T05:27:22;5.97;;;1.45;;
65879;SDS011;52661;51.364;6.054;2023-02-28T05:29:48;7.93;;;1.80;;
65879;SDS011;52661;51.364;6.054;2023-02-28T05:32:13;7.93;;;1.93;;
65879;SDS011;52661;51.364;6.054;2023-02-28T05:34:39;4.70;;;1.63;;
65879;SDS011;52661;51.364;6.054;2023-02-28T05:37:05;5.90;;;1.92;;
65879;SDS011;52661;51.364;6.054;2023-02-28T05:39:35;7.47;;;1.92;;
65879;SDS011;52661;51.364;6.054;2023-02-28T05:42:00;5.30;;;2.00;;
65879;SDS011;52661;51.364;6.054;2023-02-28T05:44:26;5.77;;;3.10;;
65879;SDS011;52661;51.364;6.054;2023-02-28T05:46:51;5.13;;;2.35;;
65879;SDS011;52661;51.364;6.054;2023-02-28T05:49:16;6.07;;;2.50;;
65879;SDS011;52661;51.364;6.054;2023-02-28T05:51:42;9.57;;;2.80;;
65879;SDS011;52661;51.364;6.054;2023-02-28T05:54:07;6.90;;;3.03;;
65879;SDS011;52661;51.364;6.054;2023-02-28T05:56:33;8.85;;;3.03;;
65879;SDS011;52661;51.364;6.054;2023-02-28T05:59:00;7.93;;;3.13;;
65879;SDS011;52661;51.364;6.054;2023-02-28T06:04:00;5.70;;;2.33;;
65879;SDS011;52661;51.364;6.054;2023-02-28T06:06:27;7.13;;;2.05;;
65879;SDS011;52661;51.364;6.054;2023-02-28T06:08:54;4.78;;;2.17;;
65879;SDS011;52661;51.364;6.054;2023-02-28T06:11:19;4.32;;;1.98;;
65879;SDS011;52661;51.364;6.054;2023-02-28T06:13:45;6.13;;;2.08;;
65879;SDS011;52661;51.364;6.054;2023-02-28T06:16:11;4.82;;;2.15;;
65879;SDS011;52661;51.364;6.054;2023-02-28T06:18:36;4.82;;;1.75;;
65879;SDS011;52661;51.364;6.054;2023-02-28T06:21:02;5.97;;;1.70;;
65879;SDS011;52661;51.364;6.054;2023-02-28T06:23:27;5.68;;;1.75;;
65879;SDS011;52661;51.364;6.054;2023-02-28T06:25:53;8.05;;;2.22;;
65879;SDS011;52661;51.364;6.054;2023-02-28T06:28:21;3.10;;;1.17;;
65879;SDS011;52661;51.364;6.054;2023-02-28T06:30:46;5.10;;;1.50;;
65879;SDS011;52661;51.364;6.054;2023-02-28T06:33:11;4.37;;;1.53;;
65879;SDS011;52661;51.364;6.054;2023-02-28T06:35:36;4.28;;;1.60;;
65879;SDS011;52661;51.364;6.054;2023-02-28T06:38:03;4.43;;;1.40;;
65879;SDS011;52661;51.364;6.054;2023-02-28T06:40:28;3.22;;;1.52;;
65879;SDS011;52661;51.364;6.054;2023-02-28T06:42:56;7.93;;;1.65;;
65879;SDS011;52661;51.364;6.054;2023-02-28T06:45:22;10.25;;;2.17;;
65879;SDS011;52661;51.364;6.054;2023-02-28T06:47:47;3.40;;;1.57;;
65879;SDS011;52661;51.364;6.054;2023-02-28T06:50:17;4.70;;;1.65;;
65879;SDS011;52661;51.364;6.054;2023-02-28T06:52:45;6.72;;;1.17;;
65879;SDS011;52661;51.364;6.054;2023-02-28T06:55:11;3.03;;;1.02;;
65879;SDS011;52661;51.364;6.054;2023-02-28T06:57:36;8.30;;;1.88;;
65879;SDS011;52661;51.364;6.054;2023-02-28T07:00:06;5.30;;;1.90;;
65879;SDS011;52661;51.364;6.054;2023-02-28T07:02:33;5.28;;;1.50;;
65879;SDS011;52661;51.364;6.054;2023-02-28T07:04:59;4.22;;;1.38;;
65879;SDS011;52661;51.364;6.054;2023-02-28T07:07:24;4.10;;;1.37;;
65879;SDS011;52661;51.364;6.054;2023-02-28T07:09:50;5.07;;;1.60;;
65879;SDS011;52661;51.364;6.054;2023-02-28T07:12:15;5.00;;;2.45;;
65879;SDS011;52661;51.364;6.054;2023-02-28T07:14:40;6.35;;;2.55;;
65879;SDS011;52661;51.364;6.054;2023-02-28T07:17:09;7.87;;;2.27;;
65879;SDS011;52661;51.364;6.054;2023-02-28T07:19:37;7.82;;;1.88;;
65879;SDS011;52661;51.364;6.054;2023-02-28T07:22:05;9.82;;;1.85;;
65879;SDS011;52661;51.364;6.054;2023-02-28T07:24:31;3.25;;;1.60;;
65879;SDS011;52661;51.364;6.054;2023-02-28T07:26:57;3.95;;;1.20;;
65879;SDS011;52661;51.364;6.054;2023-02-28T07:29:22;4.22;;;1.45;;
65879;SDS011;52661;51.364;6.054;2023-02-28T07:31:47;4.43;;;1.70;;
65879;SDS011;52661;51.364;6.054;2023-02-28T07:34:15;6.80;;;1.67;;
65879;SDS011;52661;51.364;6.054;2023-02-28T07:36:40;4.18;;;1.23;;
65879;SDS011;52661;51.364;6.054;2023-02-28T07:39:05;5.50;;;1.67;;
65879;SDS011;52661;51.364;6.054;2023-02-28T07:41:31;4.78;;;1.35;;
65879;SDS011;52661;51.364;6.054;2023-02-28T07:43:58;4.30;;;1.13;;
65879;SDS011;52661;51.364;6.054;2023-02-28T07:46:24;4.78;;;2.08;;
65879;SDS011;52661;51.364;6.054;2023-02-28T07:48:50;4.28;;;1.50;;
65879;SDS011;52661;51.364;6.054;2023-02-28T07:51:16;6.30;;;1.02;;
65879;SDS011;52661;51.364;6.054;2023-02-28T07:53:41;6.65;;;1.75;;
65879;SDS011;52661;51.364;6.054;2023-02-28T07:56:06;4.70;;;1.90;;
65879;SDS011;52661;51.364;6.054;2023-02-28T07:58:32;18.52;;;2.10;;
65879;SDS011;52661;51.364;6.054;2023-02-28T08:01:04;3.22;;;1.40;;
65879;SDS011;52661;51.364;6.054;2023-02-28T08:03:33;5.43;;;2.13;;
65879;SDS011;52661;51.364;6.054;2023-02-28T08:05:59;5.65;;;2.08;;
65879;SDS011;52661;51.364;6.054;2023-02-28T08:08:24;12.63;;;2.00;;
65879;SDS011;52661;51.364;6.054;2023-02-28T08:10:54;5.70;;;1.75;;
65879;SDS011;52661;51.364;6.054;2023-02-28T08:13:19;9.00;;;1.50;;
65879;SDS011;52661;51.364;6.054;2023-02-28T08:15:44;28.63;;;2.57;;
65879;SDS011;52661;51.364;6.054;2023-02-28T08:18:12;6.57;;;1.70;;
65879;SDS011;52661;51.364;6.054;2023-02-28T08:20:37;5.80;;;1.50;;
65879;SDS011;52661;51.364;6.054;2023-02-28T08:23:02;7.57;;;1.53;;
65879;SDS011;52661;51.364;6.054;2023-02-28T08:25:28;32.93;;;3.23;;
65879;SDS011;52661;51.364;6.054;2023-02-28T08:27:53;11.50;;;2.10;;
65879;SDS011;52661;51.364;6.054;2023-02-28T08:30:18;10.07;;;1.55;;
65879;SDS011;52661;51.364;6.054;2023-02-28T08:32:44;23.35;;;1.92;;
65879;SDS011;52661;51.364;6.054;2023-02-28T08:35:09;17.87;;;2.10;;
65879;SDS011;52661;51.364;6.054;2023-02-28T08:37:35;29.60;;;2.75;;
65879;SDS011;52661;51.364;6.054;2023-02-28T08:40:00;5.90;;;1.08;;
65879;SDS011;52661;51.364;6.054;2023-02-28T08:42:26;3.95;;;1.13;;
65879;SDS011;52661;51.364;6.054;2023-02-28T08:44:51;3.60;;;1.05;;
65879;SDS011;52661;51.364;6.054;2023-02-28T08:47:16;6.63;;;1.10;;
65879;SDS011;52661;51.364;6.054;2023-02-28T08:49:42;8.00;;;1.60;;
65879;SDS011;52661;51.364;6.054;2023-02-28T08:52:07;5.40;;;1.13;;
65879;SDS011;52661;51.364;6.054;2023-02-28T08:54:32;7.33;;;1.50;;
65879;SDS011;52661;51.364;6.054;2023-02-28T08:56:59;4.38;;;1.40;;
65879;SDS011;52661;51.364;6.054;2023-02-28T08:59:24;3.13;;;0.70;;
65879;SDS011;52661;51.364;6.054;2023-02-28T09:01:49;5.17;;;0.93;;
65879;SDS011;52661;51.364;6.054;2023-02-28T09:04:15;2.25;;;1.10;;
65879;SDS011;52661;51.364;6.054;2023-02-28T09:06:40;2.37;;;1.10;;
65879;SDS011;52661;51.364;6.054;2023-02-28T09:09:06;5.28;;;1.00;;
65879;SDS011;52661;51.364;6.054;2023-02-28T09:11:32;1.63;;;0.63;;
65879;SDS011;52661;51.364;6.054;2023-02-28T09:13:59;3.72;;;0.85;;
65879;SDS011;52661;51.364;6.054;2023-02-28T09:16:26;3.33;;;1.02;;
65879;SDS011;52661;51.364;6.054;2023-02-28T09:18:51;2.58;;;1.08;;
65879;SDS011;52661;51.364;6.054;2023-02-28T09:21:17;1.15;;;0.52;;
65879;SDS011;52661;51.364;6.054;2023-02-28T09:23:43;1.35;;;0.57;;
65879;SDS011;52661;51.364;6.054;2023-02-28T09:26:14;2.72;;;1.25;;
65879;SDS011;52661;51.364;6.054;2023-02-28T09:28:41;1.90;;;0.38;;
65879;SDS011;52661;51.364;6.054;2023-02-28T09:31:10;1.90;;;0.40;;
65879;SDS011;52661;51.364;6.054;2023-02-28T09:33:37;3.40;;;0.88;;
65879;SDS011;52661;51.364;6.054;2023-02-28T09:36:03;2.13;;;0.73;;
65879;SDS011;52661;51.364;6.054;2023-02-28T09:38:28;1.63;;;0.73;;
65879;SDS011;52661;51.364;6.054;2023-02-28T09:41:01;2.33;;;0.90;;
65879;SDS011;52661;51.364;6.054;2023-02-28T09:43:33;2.22;;;0.73;;
65879;SDS011;52661;51.364;6.054;2023-02-28T09:48:29;2.23;;;0.97;;
65879;SDS011;52661;51.364;6.054;2023-02-28T09:51:05;1.30;;;0.55;;
65879;SDS011;52661;51.364;6.054;2023-02-28T09:53:40;2.47;;;0.70;;
65879;SDS011;52661;51.364;6.054;2023-02-28T09:56:10;3.55;;;1.00;;
65879;SDS011;52661;51.364;6.054;2023-02-28T09:58:50;2.17;;;1.00;;
65879;SDS011;52661;51.364;6.054;2023-02-28T10:01:24;2.67;;;1.08;;
65879;SDS011;52661;51.364;6.054;2023-02-28T10:07:10;1.33;;;0.65;;
65879;SDS011;52661;51.364;6.054;2023-02-28T10:12:23;2.00;;;0.70;;
65879;SDS011;52661;51.364;6.054;2023-02-28T10:14:51;1.15;;;0.43;;
65879;SDS011;52661;51.364;6.054;2023-02-28T10:17:23;2.38;;;0.65;;
65879;SDS011;52661;51.364;6.054;2023-02-28T10:22:40;1.35;;;0.45;;
65879;SDS011;52661;51.364;6.054;2023-02-28T10:25:20;2.03;;;0.30;;
65879;SDS011;52661;51.364;6.054;2023-02-28T10:27:49;3.45;;;0.93;;
65879;SDS011;52661;51.364;6.054;2023-02-28T10:30:18;3.13;;;0.57;;
65879;SDS011;52661;51.364;6.054;2023-02-28T10:32:47;1.90;;;0.65;;
65879;SDS011;52661;51.364;6.054;2023-02-28T10:35:20;3.10;;;0.85;;
65879;SDS011;52661;51.364;6.054;2023-02-28T10:37:48;2.35;;;1.25;;
65879;SDS011;52661;51.364;6.054;2023-02-28T10:45:30;2.33;;;1.17;;
65879;SDS011;52661;51.364;6.054;2023-02-28T10:48:24;2.72;;;0.85;;
65879;SDS011;52661;51.364;6.054;2023-02-28T10:50:54;3.92;;;0.88;;
65879;SDS011;52661;51.364;6.054;2023-02-28T11:01:19;1.75;;;0.35;;
65879;SDS011;52661;51.364;6.054;2023-02-28T11:03:50;3.15;;;1.08;;
65879;SDS011;52661;51.364;6.054;2023-02-28T11:06:21;2.22;;;0.82;;
65879;SDS011;52661;51.364;6.054;2023-02-28T11:08:55;3.45;;;0.88;;
65879;SDS011;52661;51.364;6.054;2023-02-28T11:11:24;1.25;;;0.55;;
65879;SDS011;52661;51.364;6.054;2023-02-28T11:13:53;1.05;;;0.25;;
65879;SDS011;52661;51.364;6.054;2023-02-28T11:16:20;2.58;;;0.47;;
65879;SDS011;52661;51.364;6.054;2023-02-28T11:18:50;1.30;;;0.32;;
65879;SDS011;52661;51.364;6.054;2023-02-28T11:21:29;2.05;;;0.95;;
65879;SDS011;52661;51.364;6.054;2023-02-28T11:24:44;4.15;;;0.77;;
65879;SDS011;52661;51.364;6.054;2023-02-28T11:26:53;2.22;;;1.20;;
65879;SDS011;52661;51.364;6.054;2023-02-28T11:29:32;1.80;;;0.85;;
65879;SDS011;52661;51.364;6.054;2023-02-28T11:32:04;1.63;;;0.47;;
65879;SDS011;52661;51.364;6.054;2023-02-28T11:34:30;2.53;;;1.05;;
65879;SDS011;52661;51.364;6.054;2023-02-28T11:36:57;2.38;;;0.63;;
65879;SDS011;52661;51.364;6.054;2023-02-28T11:39:24;2.92;;;0.75;;
65879;SDS011;52661;51.364;6.054;2023-02-28T11:47:20;3.55;;;0.90;;
65879;SDS011;52661;51.364;6.054;2023-02-28T12:06:28;1.80;;;0.95;;
65879;SDS011;52661;51.364;6.054;2023-02-28T12:22:32;1.80;;;0.85;;
65879;SDS011;52661;51.364;6.054;2023-02-28T12:25:19;2.17;;;1.05;;
65879;SDS011;52661;51.364;6.054;2023-02-28T12:27:49;2.13;;;1.10;;
65879;SDS011;52661;51.364;6.054;2023-02-28T12:30:28;2.58;;;1.02;;
65879;SDS011;52661;51.364;6.054;2023-02-28T12:33:04;3.35;;;1.25;;
65879;SDS011;52661;51.364;6.054;2023-02-28T12:35:40;2.17;;;0.98;;
65879;SDS011;52661;51.364;6.054;2023-02-28T12:38:16;6.63;;;1.13;;
65879;SDS011;52661;51.364;6.054;2023-02-28T12:40:56;2.28;;;1.20;;
65879;SDS011;52661;51.364;6.054;2023-02-28T12:43:36;3.25;;;0.73;;
65879;SDS011;52661;51.364;6.054;2023-02-28T12:46:25;2.20;;;0.90;;
65879;SDS011;52661;51.364;6.054;2023-02-28T12:48:58;3.35;;;1.15;;
65879;SDS011;52661;51.364;6.054;2023-02-28T12:51:26;1.83;;;0.55;;
65879;SDS011;52661;51.364;6.054;2023-02-28T12:57:01;3.50;;;0.70;;
65879;SDS011;52661;51.364;6.054;2023-02-28T12:59:32;3.15;;;1.35;;
65879;SDS011;52661;51.364;6.054;2023-02-28T13:05:10;2.25;;;0.88;;
65879;SDS011;52661;51.364;6.054;2023-02-28T13:10:42;1.88;;;0.90;;
65879;SDS011;52661;51.364;6.054;2023-02-28T13:13:19;2.45;;;0.95;;
65879;SDS011;52661;51.364;6.054;2023-02-28T13:16:07;1.50;;;0.75;;
65879;SDS011;52661;51.364;6.054;2023-02-28T13:18:35;4.00;;;0.82;;
65879;SDS011;52661;51.364;6.054;2023-02-28T13:21:04;1.80;;;1.23;;
65879;SDS011;52661;51.364;6.054;2023-02-28T13:26:12;2.33;;;1.35;;
65879;SDS011;52661;51.364;6.054;2023-02-28T13:31:22;2.38;;;0.60;;
65879;SDS011;52661;51.364;6.054;2023-02-28T13:38:51;1.97;;;0.90;;
65879;SDS011;52661;51.364;6.054;2023-02-28T13:44:07;7.88;;;0.90;;
65879;SDS011;52661;51.364;6.054;2023-02-28T13:46:33;2.58;;;0.90;;
65879;SDS011;52661;51.364;6.054;2023-02-28T14:00:30;3.28;;;0.77;;
65879;SDS011;52661;51.364;6.054;2023-02-28T14:05:33;5.55;;;1.40;;
65879;SDS011;52661;51.364;6.054;2023-02-28T14:08:04;3.63;;;1.23;;
65879;SDS011;52661;51.364;6.054;2023-02-28T14:11:24;2.42;;;1.08;;
65879;SDS011;52661;51.364;6.054;2023-02-28T14:16:54;1.90;;;0.90;;
65879;SDS011;52661;51.364;6.054;2023-02-28T14:19:14;4.13;;;1.20;;
65879;SDS011;52661;51.364;6.054;2023-02-28T14:21:53;1.63;;;0.77;;
65879;SDS011;52661;51.364;6.054;2023-02-28T14:37:49;3.10;;;1.40;;
65879;SDS011;52661;51.364;6.054;2023-02-28T14:40:16;4.35;;;1.13;;
65879;SDS011;52661;51.364;6.054;2023-02-28T14:42:49;4.10;;;1.05;;
65879;SDS011;52661;51.364;6.054;2023-02-28T14:45:21;3.45;;;1.30;;
65879;SDS011;52661;51.364;6.054;2023-02-28T14:47:48;1.73;;;0.65;;
65879;SDS011;52661;51.364;6.054;2023-02-28T14:50:21;3.67;;;1.25;;
65879;SDS011;52661;51.364;6.054;2023-02-28T14:55:19;3.55;;;1.33;;
65879;SDS011;52661;51.364;6.054;2023-02-28T14:57:56;2.45;;;1.33;;
65879;SDS011;52661;51.364;6.054;2023-02-28T15:00:29;3.08;;;0.73;;
65879;SDS011;52661;51.364;6.054;2023-02-28T15:02:57;2.20;;;0.65;;
65879;SDS011;52661;51.364;6.054;2023-02-28T15:05:26;2.47;;;1.42;;
65879;SDS011;52661;51.364;6.054;2023-02-28T15:10:44;2.25;;;0.90;;
65879;SDS011;52661;51.364;6.054;2023-02-28T15:13:22;3.13;;;1.17;;
65879;SDS011;52661;51.364;6.054;2023-02-28T15:15:58;3.50;;;1.65;;
65879;SDS011;52661;51.364;6.054;2023-02-28T15:21:21;2.53;;;1.35;;
65879;SDS011;52661;51.364;6.054;2023-02-28T15:23:52;4.07;;;1.63;;
65879;SDS011;52661;51.364;6.054;2023-02-28T15:26:25;3.83;;;1.60;;
65879;SDS011;52661;51.364;6.054;2023-02-28T15:29:00;4.15;;;1.38;;
65879;SDS011;52661;51.364;6.054;2023-02-28T15:31:31;3.40;;;1.20;;
65879;SDS011;52661;51.364;6.054;2023-02-28T15:33:58;2.75;;;1.60;;
65879;SDS011;52661;51.364;6.054;2023-02-28T15:36:30;4.00;;;1.75;;
65879;SDS011;52661;51.364;6.054;2023-02-28T15:38:58;4.18;;;1.75;;
65879;SDS011;52661;51.364;6.054;2023-02-28T15:41:46;8.00;;;2.28;;
65879;SDS011;52661;51.364;6.054;2023-02-28T15:44:43;2.78;;;1.88;;
65879;SDS011;52661;51.364;6.054;2023-02-28T15:47:02;2.95;;;1.30;;
65879;SDS011;52661;51.364;6.054;2023-02-28T15:52:05;2.70;;;1.73;;
65879;SDS011;52661;51.364;6.054;2023-02-28T15:54:32;4.25;;;1.67;;
65879;SDS011;52661;51.364;6.054;2023-02-28T15:57:05;3.42;;;1.67;;
65879;SDS011;52661;51.364;6.054;2023-02-28T15:59:35;5.60;;;1.67;;
65879;SDS011;52661;51.364;6.054;2023-02-28T16:02:03;2.45;;;1.05;;
65879;SDS011;52661;51.364;6.054;2023-02-28T16:04:34;3.05;;;1.80;;
65879;SDS011;52661;51.364;6.054;2023-02-28T16:09:27;2.70;;;1.75;;
65879;SDS011;52661;51.364;6.054;2023-02-28T16:11:55;3.15;;;1.65;;
65879;SDS011;52661;51.364;6.054;2023-02-28T16:14:25;2.97;;;1.58;;
65879;SDS011;52661;51.364;6.054;2023-02-28T16:17:05;4.07;;;1.42;;
65879;SDS011;52661;51.364;6.054;2023-02-28T16:19:35;3.75;;;1.13;;
65879;SDS011;52661;51.364;6.054;2023-02-28T16:22:00;3.97;;;1.50;;
65879;SDS011;52661;51.364;6.054;2023-02-28T16:24:26;5.10;;;1.20;;
65879;SDS011;52661;51.364;6.054;2023-02-28T16:26:52;2.45;;;1.33;;
65879;SDS011;52661;51.364;6.054;2023-02-28T16:31:54;5.13;;;1.27;;
65879;SDS011;52661;51.364;6.054;2023-02-28T16:34:19;3.45;;;1.27;;
65879;SDS011;52661;51.364;6.054;2023-02-28T16:36:46;2.50;;;1.60;;
65879;SDS011;52661;51.364;6.054;2023-02-28T16:39:13;2.67;;;1.23;;
65879;SDS011;52661;51.364;6.054;2023-02-28T16:41:38;4.40;;;1.52;;
65879;SDS011;52661;51.364;6.054;2023-02-28T16:44:10;2.78;;;1.42;;
65879;SDS011;52661;51.364;6.054;2023-02-28T16:46:39;3.53;;;1.55;;
65879;SDS011;52661;51.364;6.054;2023-02-28T16:49:05;3.38;;;1.17;;
65879;SDS011;52661;51.364;6.054;2023-02-28T16:51:36;3.05;;;1.15;;
65879;SDS011;52661;51.364;6.054;2023-02-28T16:54:01;3.13;;;0.93;;
65879;SDS011;52661;51.364;6.054;2023-02-28T16:56:26;2.70;;;1.10;;
65879;SDS011;52661;51.364;6.054;2023-02-28T16:58:52;4.32;;;1.38;;
65879;SDS011;52661;51.364;6.054;2023-02-28T17:01:22;2.75;;;0.90;;
65879;SDS011;52661;51.364;6.054;2023-02-28T17:03:48;4.13;;;1.20;;
65879;SDS011;52661;51.364;6.054;2023-02-28T17:06:16;3.47;;;1.55;;
65879;SDS011;52661;51.364;6.054;2023-02-28T17:08:51;3.70;;;1.75;;
65879;SDS011;52661;51.364;6.054;2023-02-28T17:11:16;4.32;;;1.55;;
65879;SDS011;52661;51.364;6.054;2023-02-28T17:13:43;3.50;;;1.25;;
65879;SDS011;52661;51.364;6.054;2023-02-28T17:16:11;3.40;;;1.25;;
65879;SDS011;52661;51.364;6.054;2023-02-28T17:18:47;2.90;;;1.20;;
65879;SDS011;52661;51.364;6.054;2023-02-28T17:21:13;2.85;;;1.35;;
65879;SDS011;52661;51.364;6.054;2023-02-28T17:23:40;4.55;;;1.25;;
65879;SDS011;52661;51.364;6.054;2023-02-28T17:26:05;4.33;;;1.27;;
65879;SDS011;52661;51.364;6.054;2023-02-28T17:28:31;4.03;;;1.55;;
65879;SDS011;52661;51.364;6.054;2023-02-28T17:30:57;3.50;;;2.00;;
65879;SDS011;52661;51.364;6.054;2023-02-28T17:33:22;3.13;;;1.63;;
65879;SDS011;52661;51.364;6.054;2023-02-28T17:35:47;2.80;;;1.37;;
65879;SDS011;52661;51.364;6.054;2023-02-28T17:38:17;2.20;;;1.23;;
65879;SDS011;52661;51.364;6.054;2023-02-28T17:40:44;3.45;;;1.60;;
65879;SDS011;52661;51.364;6.054;2023-02-28T17:43:09;2.83;;;1.27;;
65879;SDS011;52661;51.364;6.054;2023-02-28T17:45:35;3.07;;;1.53;;
65879;SDS011;52661;51.364;6.054;2023-02-28T17:48:01;3.80;;;2.22;;
65879;SDS011;52661;51.364;6.054;2023-02-28T17:50:26;3.97;;;2.28;;
65879;SDS011;52661;51.364;6.054;2023-02-28T17:52:52;3.00;;;1.95;;
65879;SDS011;52661;51.364;6.054;2023-02-28T17:55:17;5.30;;;1.63;;
65879;SDS011;52661;51.364;6.054;2023-02-28T17:57:44;3.53;;;1.70;;